Meloria — IBXK — position and weather

sailwx.info

Track history (hours):
 
Tides and Currents Weather Stations Pressure Air Temp Water Temp Dewpoint Dewpoint Depression Visibility Wind Speed Wind Dir Waves Ship Positions

Meloria

Last reported at 2014-Oct-21 01:32 UTC. Time now 2014-Oct-25 01:30 UTC.
Position N 35°59' W 000°13'.

Length 176 m; draft 9.7 m.

Type: Tanker. MMSI: 247171100.

Date/timePositionNaut miles runAvg speedWind from/ knotsBaromVisibWave heightAir tempDewpointWater temp
2014-Oct-21 01:32N 35°59' W 000°13'33 5.6
2014-Oct-20 19:33N 36°26' W 000°36'1 0.4
2014-Oct-20 16:28N 36°26' W 000°34'1 0.6
2014-Oct-20 15:33N 36°26' W 000°34'0 0.1
2014-Oct-20 14:33N 36°26' W 000°34'38 0.8
2014-Oct-18 14:28N 36°42' E 000°10'3 0.4
2014-Oct-18 07:26N 36°39' E 000°10'1 0.5
2014-Oct-18 05:21N 36°39' E 000°10'3 0.6
2014-Oct-17 23:23N 36°35' E 000°09'1 0.5
2014-Oct-17 20:33N 36°34' E 000°11'1 0.4
2014-Oct-17 18:33N 36°34' E 000°12'1 0.3
2014-Oct-17 15:33N 36°35' E 000°12'1 0.2
2014-Oct-17 11:33N 36°36' E 000°12'34 9.8
2014-Oct-17 08:06N 36°31' W 000°30'813.6
2014-Oct-17 07:31N 36°30' W 000°40'22814.2
2014-Oct-16 15:31N 36°05' W 005°21'3 2.2
2014-Oct-16 14:20N 36°08' W 005°23'0 0.0
2014-Oct-16 05:31N 36°07' W 005°23'0 0.0
2014-Oct-16 02:04N 36°08' W 005°23'0 0.0
2014-Oct-15 17:31N 36°07' W 005°22'4 0.4
2014-Oct-15 09:09N 36°05' W 005°19'4 6.1
2014-Oct-15 08:34N 36°05' W 005°15'1 0.9
2014-Oct-15 07:07N 36°06' W 005°14'1 1.1
2014-Oct-15 06:26N 36°07' W 005°14'  
2014-Oct-12 01:33N 38°47' E 002°34'1412.8
2014-Oct-12 00:27N 38°54' E 002°49'1212.8
2014-Oct-11 23:33N 39°00' E 003°02'1312.8
2014-Oct-11 22:32N 39°07' E 003°16'1312.8
2014-Oct-11 21:32N 39°13' E 003°30'  
Track history (hours):
 
Tides and Currents Weather Stations Pressure Air Temp Water Temp Dewpoint Dewpoint Depression Visibility Wind Speed Wind Dir Waves Ship Positions

Meloria

Last reported at 2014-Oct-21 01:32 UTC. Time now 2014-Oct-25 01:30 UTC.
Position N 35°59' W 000°13'.

Length 176 m; draft 9.7 m.

Type: Tanker. MMSI: 247171100.

Date/timePositionNaut miles runAvg speedWind from/ knotsBaromVisibWave heightAir tempDewpointWater temp
2014-Oct-21 01:32N 35°59' W 000°13'33 5.6
2014-Oct-20 19:33N 36°26' W 000°36'1 0.4
2014-Oct-20 16:28N 36°26' W 000°34'1 0.6
2014-Oct-20 15:33N 36°26' W 000°34'0 0.1
2014-Oct-20 14:33N 36°26' W 000°34'38 0.8
2014-Oct-18 14:28N 36°42' E 000°10'3 0.4
2014-Oct-18 07:26N 36°39' E 000°10'1 0.5
2014-Oct-18 05:21N 36°39' E 000°10'3 0.6
2014-Oct-17 23:23N 36°35' E 000°09'1 0.5
2014-Oct-17 20:33N 36°34' E 000°11'1 0.4
2014-Oct-17 18:33N 36°34' E 000°12'1 0.3
2014-Oct-17 15:33N 36°35' E 000°12'1 0.2
2014-Oct-17 11:33N 36°36' E 000°12'34 9.8
2014-Oct-17 08:06N 36°31' W 000°30'813.6
2014-Oct-17 07:31N 36°30' W 000°40'22814.2
2014-Oct-16 15:31N 36°05' W 005°21'3 2.2
2014-Oct-16 14:20N 36°08' W 005°23'0 0.0
2014-Oct-16 05:31N 36°07' W 005°23'0 0.0
2014-Oct-16 02:04N 36°08' W 005°23'0 0.0
2014-Oct-15 17:31N 36°07' W 005°22'4 0.4
2014-Oct-15 09:09N 36°05' W 005°19'4 6.1
2014-Oct-15 08:34N 36°05' W 005°15'1 0.9
2014-Oct-15 07:07N 36°06' W 005°14'1 1.1
2014-Oct-15 06:26N 36°07' W 005°14'  
2014-Oct-12 01:33N 38°47' E 002°34'1412.8
2014-Oct-12 00:27N 38°54' E 002°49'1212.8
2014-Oct-11 23:33N 39°00' E 003°02'1312.8
2014-Oct-11 22:32N 39°07' E 003°16'1312.8
2014-Oct-11 21:32N 39°13' E 003°30'  

Dump ship's entire track history